PILOTS ONLINE: 459    ATC ONLINE: 122

KMEI

Key Field

Location

IATA MEI
City Meridian
Country  United States
Latitude 32° 19' 57" N
Longitude 88° 45' 6" W
Elevation 297 ft
Type Medium Airport

Map

Weather

METAR
2014/09/18 16:58
KMEI 181658Z 11004KT 10SM CLR 29/19 A2996 RMK AO2 SLP141 T02940189
TAF
2014/09/18 18:00
TAF KMEI 181739Z 1818/1918 11004KT P6SM SKC 
     FM190600 00000KT 4SM BR SKC

Runways

01/19 10003 ft / 150 ft
04/22 4599 ft / 150 ft

Outbound flights

Callsign Flying to Pilot ATD/STD ETA Aircraft

Inbound flights

Callsign Flying from Pilot ATD ETA Aircraft